Time;durP1;ratioP1;P1;durP2;ratioP2;P2;SDS_P1;SDS_P2;PMS_P1;PMS_P2;Temp;Humidity;BMP_temperature;BMP_pressure;BME280_temperature;BME280_humidity;BME280_pressure;Samples;Min_cycle;Max_cycle;Signal;HPM_P1;HPM_P2
2022/07/27 00:00:07;;;;;;;;;;;14.20;99.90;;;;;;5102387;28;19919;-68
2022/07/27 00:02:33;;;;;;;;;;;14.10;99.90;;;;;;5097626;28;19966;-69
2022/07/27 00:04:58;;;;;;;;;;;14.10;99.90;;;;;;5093314;28;19916;-69
2022/07/27 00:07:24;;;;;;;;;;;14.10;99.90;;;;;;5097313;28;20234;-69
2022/07/27 00:09:49;;;;;;;;;;;14.10;99.90;;;;;;5080661;28;19919;-69
2022/07/27 00:12:15;;;;;;;;;;;14.00;99.90;;;;;;5085504;28;19916;-70
2022/07/27 00:14:41;;;;;;;;;;;14.10;99.90;;;;;;5095806;28;19919;-68
2022/07/27 00:17:06;;;;;;;;;;;14.00;99.90;;;;;;5091677;28;20375;-70
2022/07/27 00:19:32;;;;;;;;;;;14.00;99.90;;;;;;5094419;28;19984;-70
2022/07/27 00:21:58;;;;;;;;;;;13.90;99.90;;;;;;5096851;28;19919;-68
2022/07/27 00:24:24;;;;;;;;;;;13.90;99.90;;;;;;5092067;28;20350;-69
2022/07/27 00:26:49;;;;;;;;;;;13.90;99.90;;;;;;5094650;28;20555;-69
2022/07/27 00:29:15;;;;;;;;;;;13.80;99.90;;;;;;5091974;28;19923;-70
2022/07/27 00:31:41;;;;;;;;;;;13.90;99.90;;;;;;5073722;28;19919;-70
2022/07/27 00:34:06;;;;;;;;;;;13.80;99.90;;;;;;5097281;28;20038;-68
2022/07/27 00:36:32;;;;;;;;;;;13.90;99.90;;;;;;5079985;28;19972;-69
2022/07/27 00:38:57;;;;;;;;;;;13.80;99.90;;;;;;5090649;28;19923;-69
2022/07/27 00:41:23;;;;;;;;;;;13.80;99.90;;;;;;5073663;28;20331;-69
2022/07/27 00:43:58;;;;;;;;;;;13.80;99.90;;;;;;5093967;28;20314;-69
2022/07/27 00:46:24;;;;;;;;;;;13.70;99.90;;;;;;5094668;28;19916;-69
2022/07/27 00:48:50;;;;;;;;;;;13.70;99.90;;;;;;5095538;28;20278;-68
2022/07/27 00:51:17;;;;;;;;;;;13.60;99.90;;;;;;5073089;28;19915;-69
2022/07/27 00:53:42;;;;;;;;;;;13.60;99.90;;;;;;5092116;28;19919;-69
2022/07/27 00:56:08;;;;;;;;;;;13.60;99.90;;;;;;5091794;28;19920;-70
2022/07/27 00:58:34;;;;;;;;;;;13.70;99.90;;;;;;5090540;28;19920;-69
2022/07/27 01:00:59;;;;;;;;;;;13.60;99.90;;;;;;5096580;28;19912;-69
2022/07/27 01:03:25;;;;;;;;;;;13.60;99.90;;;;;;5097513;28;20491;-69
2022/07/27 01:05:51;;;;;;;;;;;13.50;99.90;;;;;;5092941;28;19924;-69
2022/07/27 01:08:16;;;;;;;;;;;13.50;99.90;;;;;;5075297;28;19916;-69
2022/07/27 01:10:43;;;;;;;;;;;13.50;99.90;;;;;;5072936;28;19920;-68
2022/07/27 01:13:08;;;;;;;;;;;13.50;99.90;;;;;;5093978;28;19928;-68
2022/07/27 01:15:36;;;;;;;;;;;13.50;99.90;;;;;;5092793;28;19916;-68
2022/07/27 01:18:02;;;;;;;;;;;13.40;99.90;;;;;;5091044;28;20002;-69
2022/07/27 01:20:28;;;;;;;;;;;13.40;99.90;;;;;;5091423;28;19922;-68
2022/07/27 01:22:53;;;;;;;;;;;13.30;99.90;;;;;;5098417;28;19912;-68
2022/07/27 01:25:19;;;;;;;;;;;13.30;99.90;;;;;;5088373;28;20374;-70
2022/07/27 01:27:44;;;;;;;;;;;13.30;99.90;;;;;;5092755;28;20297;-69
2022/07/27 01:30:25;;;;;;;;;;;13.30;99.90;;;;;;5096422;28;20015;-68
2022/07/27 01:32:58;;;;;;;;;;;13.30;99.90;;;;;;5088085;28;20457;-70
2022/07/27 01:35:24;;;;;;;;;;;13.40;99.90;;;;;;5091085;28;20259;-69
2022/07/27 01:37:49;;;;;;;;;;;13.40;99.90;;;;;;5073412;28;20367;-69
2022/07/27 01:40:15;;;;;;;;;;;13.40;99.90;;;;;;5097488;28;20304;-70
2022/07/27 01:42:40;;;;;;;;;;;13.30;99.90;;;;;;5089431;28;20255;-68
2022/07/27 01:45:06;;;;;;;;;;;13.20;99.90;;;;;;5090499;28;20278;-69
2022/07/27 01:47:32;;;;;;;;;;;13.20;99.90;;;;;;5073668;28;19995;-68
2022/07/27 01:49:57;;;;;;;;;;;13.20;99.90;;;;;;5094907;28;20354;-69
2022/07/27 01:52:23;;;;;;;;;;;13.20;99.90;;;;;;5092426;28;19981;-69
2022/07/27 01:54:49;;;;;;;;;;;13.20;99.90;;;;;;5090201;28;19927;-68
2022/07/27 01:57:14;;;;;;;;;;;13.10;99.90;;;;;;5075903;28;19912;-69
2022/07/27 01:59:40;;;;;;;;;;;13.10;99.90;;;;;;5093723;28;19952;-69
2022/07/27 02:02:06;;;;;;;;;;;13.00;99.90;;;;;;5090843;28;20282;-68
2022/07/27 02:04:31;;;;;;;;;;;12.90;99.90;;;;;;5092346;28;20364;-70
2022/07/27 02:06:57;;;;;;;;;;;12.90;99.90;;;;;;5092356;28;19916;-69
2022/07/27 02:09:24;;;;;;;;;;;12.90;99.90;;;;;;5076893;28;19923;-69
2022/07/27 02:14:34;;;;;;;;;;;12.80;99.90;;;;;;5094338;28;19965;-68
2022/07/27 02:17:00;;;;;;;;;;;12.80;99.90;;;;;;5094381;28;20308;-69
2022/07/27 02:19:27;;;;;;;;;;;12.70;99.90;;;;;;5071351;28;20396;-69
2022/07/27 02:21:52;;;;;;;;;;;12.80;99.90;;;;;;5093381;28;19957;-70
2022/07/27 02:24:18;;;;;;;;;;;12.80;99.90;;;;;;5093625;28;19924;-71
2022/07/27 02:26:44;;;;;;;;;;;12.70;99.90;;;;;;5094400;28;19939;-68
2022/07/27 02:29:10;;;;;;;;;;;12.80;99.90;;;;;;5092167;28;19920;-69
2022/07/27 02:31:35;;;;;;;;;;;12.80;99.90;;;;;;5095431;28;19912;-70
2022/07/27 02:34:01;;;;;;;;;;;12.80;99.90;;;;;;5092796;28;19912;-69
2022/07/27 02:36:29;;;;;;;;;;;12.70;99.90;;;;;;5091716;28;19928;-69
2022/07/27 02:38:55;;;;;;;;;;;12.70;99.90;;;;;;5091431;28;20367;-69
2022/07/27 02:41:21;;;;;;;;;;;12.60;99.90;;;;;;5097571;28;19912;-70
2022/07/27 02:43:46;;;;;;;;;;;12.60;99.90;;;;;;5098884;28;19981;-69
2022/07/27 02:46:12;;;;;;;;;;;12.60;99.90;;;;;;5097909;28;20309;-68
2022/07/27 02:48:37;;;;;;;;;;;12.60;99.90;;;;;;5099812;28;20420;-68
2022/07/27 02:51:03;;;;;;;;;;;12.60;99.90;;;;;;5073551;28;20767;-69
2022/07/27 02:53:29;;;;;;;;;;;12.60;99.90;;;;;;5078634;28;19961;-69
2022/07/27 02:55:55;;;;;;;;;;;12.60;99.90;;;;;;5078985;28;19912;-68
2022/07/27 02:58:20;;;;;;;;;;;12.60;99.90;;;;;;5094105;28;19912;-69
2022/07/27 03:00:46;;;;;;;;;;;12.60;99.90;;;;;;5099747;28;19912;-69
2022/07/27 03:03:12;;;;;;;;;;;12.60;99.90;;;;;;5093154;28;19995;-68
2022/07/27 03:05:38;;;;;;;;;;;12.70;99.90;;;;;;5097372;28;19912;-69
2022/07/27 03:08:04;;;;;;;;;;;12.80;99.90;;;;;;5074879;28;19943;-69
2022/07/27 03:10:29;;;;;;;;;;;12.70;99.90;;;;;;5073685;28;20024;-69
2022/07/27 03:12:55;;;;;;;;;;;12.70;99.90;;;;;;5070623;28;20026;-68
2022/07/27 03:15:21;;;;;;;;;;;12.80;99.90;;;;;;5095728;28;20347;-69
2022/07/27 03:17:46;;;;;;;;;;;12.80;99.90;;;;;;5092586;28;19912;-68
2022/07/27 03:20:12;;;;;;;;;;;12.60;99.90;;;;;;5099187;28;19912;-69
2022/07/27 03:22:37;;;;;;;;;;;12.50;99.90;;;;;;5095598;28;19916;-68
2022/07/27 03:25:03;;;;;;;;;;;12.50;99.90;;;;;;5091863;28;19924;-69
2022/07/27 03:27:29;;;;;;;;;;;12.60;99.90;;;;;;5093480;28;19930;-69
2022/07/27 03:29:55;;;;;;;;;;;12.50;99.90;;;;;;5096783;28;20313;-68
2022/07/27 03:32:20;;;;;;;;;;;12.40;99.90;;;;;;5096003;28;20481;-69
2022/07/27 03:34:46;;;;;;;;;;;12.40;99.90;;;;;;5091639;28;19912;-70
2022/07/27 03:37:11;;;;;;;;;;;12.60;99.90;;;;;;5076012;28;19919;-69
2022/07/27 03:39:37;;;;;;;;;;;12.60;99.90;;;;;;5093652;28;20357;-68
2022/07/27 03:42:03;;;;;;;;;;;12.70;99.90;;;;;;5092305;28;20010;-68
2022/07/27 03:44:28;;;;;;;;;;;12.60;99.90;;;;;;5096311;28;19919;-69
2022/07/27 03:46:54;;;;;;;;;;;12.50;99.90;;;;;;5091899;28;19924;-68
2022/07/27 03:49:19;;;;;;;;;;;12.40;99.90;;;;;;5091935;28;19920;-70
2022/07/27 03:51:45;;;;;;;;;;;12.30;99.90;;;;;;5089645;28;19912;-70
2022/07/27 03:54:11;;;;;;;;;;;12.10;99.90;;;;;;5091027;28;19924;-69
2022/07/27 03:56:36;;;;;;;;;;;12.10;99.90;;;;;;5092810;28;19912;-69
2022/07/27 03:59:02;;;;;;;;;;;12.10;99.90;;;;;;5095932;28;19923;-69
2022/07/27 04:01:27;;;;;;;;;;;12.00;99.90;;;;;;5095380;28;19922;-69
2022/07/27 04:03:53;;;;;;;;;;;11.90;99.90;;;;;;5091311;28;20431;-69
2022/07/27 04:06:18;;;;;;;;;;;11.90;99.90;;;;;;5075638;28;19924;-69
2022/07/27 04:08:44;;;;;;;;;;;11.80;99.90;;;;;;5092689;28;19916;-68
2022/07/27 04:11:09;;;;;;;;;;;11.80;99.90;;;;;;5092985;28;20261;-68
2022/07/27 04:13:35;;;;;;;;;;;11.90;99.90;;;;;;5092903;28;19912;-69
2022/07/27 04:16:01;;;;;;;;;;;11.90;99.90;;;;;;5096505;28;19915;-70
2022/07/27 04:18:26;;;;;;;;;;;11.90;99.90;;;;;;5095072;28;19920;-69
2022/07/27 04:20:52;;;;;;;;;;;11.90;99.90;;;;;;5077585;28;19957;-69
2022/07/27 04:23:17;;;;;;;;;;;11.90;99.90;;;;;;5097665;28;20046;-68
2022/07/27 04:25:43;;;;;;;;;;;11.90;99.90;;;;;;5094529;28;19920;-69
2022/07/27 04:28:08;;;;;;;;;;;11.90;99.90;;;;;;5092554;28;20317;-69
2022/07/27 04:30:34;;;;;;;;;;;11.80;99.90;;;;;;5089968;28;20309;-70
2022/07/27 04:32:59;;;;;;;;;;;11.80;99.90;;;;;;5092121;28;19912;-69
2022/07/27 04:35:28;;;;;;;;;;;11.80;99.90;;;;;;5094478;28;20003;-69
2022/07/27 04:37:54;;;;;;;;;;;11.70;99.90;;;;;;5092029;28;20469;-69
2022/07/27 04:40:19;;;;;;;;;;;11.60;99.90;;;;;;5075448;28;20398;-69
2022/07/27 04:42:45;;;;;;;;;;;11.60;99.90;;;;;;5093977;28;19989;-68
2022/07/27 04:45:10;;;;;;;;;;;11.60;99.90;;;;;;5089569;28;19927;-69
2022/07/27 04:47:36;;;;;;;;;;;11.50;99.90;;;;;;5094582;28;20049;-69
2022/07/27 04:50:02;;;;;;;;;;;11.60;99.90;;;;;;5091683;28;20231;-69
2022/07/27 04:52:27;;;;;;;;;;;11.70;99.90;;;;;;5093057;28;20369;-69
2022/07/27 04:54:53;;;;;;;;;;;11.70;99.90;;;;;;5092310;28;20397;-69
2022/07/27 04:57:19;;;;;;;;;;;11.80;99.90;;;;;;5089556;28;19916;-69
2022/07/27 04:59:45;;;;;;;;;;;11.70;99.90;;;;;;5091289;28;19937;-68
2022/07/27 05:02:11;;;;;;;;;;;11.60;99.90;;;;;;5076612;28;19930;-69
2022/07/27 05:04:36;;;;;;;;;;;11.60;99.90;;;;;;5090222;28;19934;-69
2022/07/27 05:07:02;;;;;;;;;;;11.60;99.90;;;;;;5100118;28;19977;-69
2022/07/27 05:09:27;;;;;;;;;;;11.70;99.90;;;;;;5095495;28;19924;-69
2022/07/27 05:11:53;;;;;;;;;;;11.80;99.90;;;;;;5070993;28;20444;-69
2022/07/27 05:14:19;;;;;;;;;;;11.70;99.90;;;;;;5092772;28;19930;-68
2022/07/27 05:16:44;;;;;;;;;;;11.70;99.90;;;;;;5096207;28;19998;-69
2022/07/27 05:19:11;;;;;;;;;;;11.70;99.90;;;;;;5095045;28;19911;-68
2022/07/27 05:21:36;;;;;;;;;;;11.70;99.90;;;;;;5094783;28;20018;-68
2022/07/27 05:24:02;;;;;;;;;;;11.80;99.90;;;;;;5086845;28;20012;-68
2022/07/27 05:26:28;;;;;;;;;;;11.90;99.90;;;;;;5087935;28;19923;-69
2022/07/27 05:28:53;;;;;;;;;;;11.90;99.90;;;;;;5097538;28;19916;-69
2022/07/27 05:31:19;;;;;;;;;;;11.90;99.90;;;;;;5089202;28;19912;-69
2022/07/27 05:33:45;;;;;;;;;;;12.10;99.90;;;;;;5097125;28;20010;-69
2022/07/27 05:36:10;;;;;;;;;;;12.10;99.90;;;;;;5086591;28;19912;-68
2022/07/27 05:38:38;;;;;;;;;;;12.10;99.90;;;;;;5071506;28;20376;-69
2022/07/27 05:41:06;;;;;;;;;;;12.10;99.90;;;;;;5094189;28;19922;-69
2022/07/27 05:43:32;;;;;;;;;;;12.10;99.90;;;;;;5094607;28;19920;-70
2022/07/27 05:45:57;;;;;;;;;;;12.10;99.90;;;;;;5086680;28;19942;-68
2022/07/27 05:48:23;;;;;;;;;;;12.10;99.90;;;;;;5091407;28;19930;-69
2022/07/27 05:50:48;;;;;;;;;;;12.20;99.90;;;;;;5090202;28;20259;-69
2022/07/27 05:53:14;;;;;;;;;;;12.20;99.90;;;;;;5096112;28;20307;-69
2022/07/27 05:55:40;;;;;;;;;;;12.40;99.90;;;;;;5097349;28;19943;-70
2022/07/27 05:58:05;;;;;;;;;;;12.50;99.90;;;;;;5090420;28;19920;-68
2022/07/27 06:00:31;;;;;;;;;;;12.60;99.90;;;;;;5093296;28;19912;-68
2022/07/27 06:02:56;;;;;;;;;;;12.60;99.90;;;;;;5090361;28;20316;-68
2022/07/27 06:05:22;;;;;;;;;;;12.70;99.90;;;;;;5091998;28;19920;-68
2022/07/27 06:08:02;;;;;;;;;;;12.80;99.90;;;;;;5074519;28;20278;-69
2022/07/27 06:10:32;;;;;;;;;;;12.90;99.90;;;;;;5076333;28;20381;-69
2022/07/27 06:12:58;;;;;;;;;;;13.00;99.90;;;;;;5097102;28;19919;-69
2022/07/27 06:15:24;;;;;;;;;;;13.00;99.90;;;;;;5076331;28;20010;-68
2022/07/27 06:17:52;;;;;;;;;;;13.10;99.90;;;;;;5092990;28;19995;-68
2022/07/27 06:20:17;;;;;;;;;;;13.20;99.90;;;;;;5092319;28;19912;-68
2022/07/27 06:22:48;;;;;;;;;;;13.30;99.90;;;;;;5095519;28;20007;-69
2022/07/27 06:25:14;;;;;;;;;;;13.50;99.90;;;;;;5097932;28;19935;-70
2022/07/27 06:27:40;;;;;;;;;;;13.50;99.90;;;;;;5097501;28;20385;-69
2022/07/27 06:30:06;;;;;;;;;;;13.60;99.90;;;;;;5100844;28;20387;-69
2022/07/27 06:32:32;;;;;;;;;;;13.80;99.90;;;;;;5093852;28;19957;-69
2022/07/27 06:34:59;;;;;;;;;;;14.00;99.90;;;;;;5094266;28;20010;-68
2022/07/27 06:37:26;;;;;;;;;;;14.20;99.90;;;;;;5093246;28;19923;-69
2022/07/27 06:39:52;;;;;;;;;;;14.40;99.90;;;;;;5096900;28;20003;-70
2022/07/27 06:42:17;;;;;;;;;;;14.60;99.90;;;;;;5094166;28;19916;-68
2022/07/27 06:44:43;;;;;;;;;;;14.70;99.90;;;;;;5093678;28;19927;-70
2022/07/27 06:47:08;;;;;;;;;;;14.80;99.90;;;;;;5095627;28;19920;-69
2022/07/27 06:49:34;;;;;;;;;;;14.90;99.90;;;;;;5095306;28;20370;-70
2022/07/27 06:51:59;;;;;;;;;;;15.00;99.90;;;;;;5091012;28;20393;-68
2022/07/27 06:54:25;;;;;;;;;;;15.00;99.90;;;;;;5098783;28;21558;-69
2022/07/27 06:56:51;;;;;;;;;;;15.30;99.90;;;;;;5092972;28;20007;-69
2022/07/27 06:59:16;;;;;;;;;;;15.40;99.90;;;;;;5093811;28;19927;-68
2022/07/27 07:01:42;;;;;;;;;;;15.40;99.90;;;;;;5093568;28;19919;-70
2022/07/27 07:04:08;;;;;;;;;;;15.60;99.90;;;;;;5093203;28;20016;-69
2022/07/27 07:06:33;;;;;;;;;;;15.70;99.90;;;;;;5091132;28;20007;-69
2022/07/27 07:08:59;;;;;;;;;;;15.80;99.90;;;;;;5093993;28;19923;-70
2022/07/27 07:11:25;;;;;;;;;;;15.90;99.90;;;;;;5092141;28;19940;-69
2022/07/27 07:13:50;;;;;;;;;;;15.90;99.90;;;;;;5096700;28;19947;-69
2022/07/27 07:16:16;;;;;;;;;;;16.00;99.90;;;;;;5070682;28;19916;-69
2022/07/27 07:18:41;;;;;;;;;;;15.90;99.90;;;;;;5089534;28;19927;-70
2022/07/27 07:21:07;;;;;;;;;;;16.00;99.90;;;;;;5097212;28;20007;-71
2022/07/27 07:23:33;;;;;;;;;;;16.10;99.90;;;;;;5078843;28;20432;-69
2022/07/27 07:25:58;;;;;;;;;;;16.20;99.90;;;;;;5074188;28;20011;-70
2022/07/27 07:28:24;;;;;;;;;;;16.40;99.90;;;;;;5055527;28;19924;-70
2022/07/27 07:30:49;;;;;;;;;;;16.50;99.90;;;;;;5071974;28;19912;-69
2022/07/27 07:33:15;;;;;;;;;;;16.60;99.90;;;;;;5068994;28;19913;-70
2022/07/27 07:35:41;;;;;;;;;;;16.70;99.90;;;;;;5071425;28;19973;-68
2022/07/27 07:38:06;;;;;;;;;;;16.60;99.90;;;;;;5072931;28;19959;-69
2022/07/27 07:40:32;;;;;;;;;;;16.60;99.90;;;;;;5072658;28;19919;-69
2022/07/27 07:43:01;;;;;;;;;;;16.60;99.90;;;;;;5055399;28;20965;-69
2022/07/27 07:45:29;;;;;;;;;;;16.70;99.90;;;;;;5054388;28;19913;-69
2022/07/27 07:47:56;;;;;;;;;;;16.70;99.90;;;;;;5056650;28;19975;-68
2022/07/27 07:50:21;;;;;;;;;;;16.90;99.90;;;;;;5054041;28;19992;-68
2022/07/27 07:52:48;;;;;;;;;;;17.00;99.90;;;;;;5069217;28;19935;-68
2022/07/27 07:55:14;;;;;;;;;;;17.20;99.90;;;;;;5072178;28;20038;-68
2022/07/27 07:57:39;;;;;;;;;;;17.30;99.90;;;;;;5076230;28;19928;-70
2022/07/27 08:00:06;;;;;;;;;;;17.30;99.90;;;;;;5055310;28;20419;-69
2022/07/27 08:02:31;;;;;;;;;;;17.30;99.90;;;;;;5076664;28;20382;-68
2022/07/27 08:04:57;;;;;;;;;;;17.50;99.90;;;;;;5075774;28;19932;-68
2022/07/27 08:07:23;;;;;;;;;;;17.60;99.90;;;;;;5067359;28;19929;-69
2022/07/27 08:09:49;;;;;;;;;;;17.90;99.90;;;;;;5066631;28;19927;-69
2022/07/27 08:12:14;;;;;;;;;;;18.00;99.90;;;;;;5066891;28;19920;-68
2022/07/27 08:14:40;;;;;;;;;;;18.30;99.90;;;;;;5047574;28;19942;-68
2022/07/27 08:17:06;;;;;;;;;;;18.40;99.90;;;;;;5073002;28;20390;-68
2022/07/27 08:19:31;;;;;;;;;;;18.40;99.90;;;;;;5067512;28;20003;-68
2022/07/27 08:21:57;;;;;;;;;;;18.50;99.90;;;;;;5070456;28;19913;-67
2022/07/27 08:24:23;;;;;;;;;;;18.40;99.90;;;;;;5060092;28;19920;-69
2022/07/27 08:26:48;;;;;;;;;;;18.40;99.90;;;;;;5073070;28;19924;-68
2022/07/27 08:29:14;;;;;;;;;;;18.20;99.90;;;;;;5073509;28;20704;-68
2022/07/27 08:31:39;;;;;;;;;;;18.20;99.90;;;;;;5073808;28;20371;-69
2022/07/27 08:34:05;;;;;;;;;;;18.40;99.90;;;;;;5073373;28;20092;-67
2022/07/27 08:36:31;;;;;;;;;;;18.40;99.90;;;;;;5072911;28;20003;-68
2022/07/27 08:39:00;;;;;;;;;;;18.60;99.90;;;;;;5070727;28;20016;-67
2022/07/27 08:41:26;;;;;;;;;;;18.80;99.90;;;;;;5080782;28;20002;-69
2022/07/27 08:43:53;;;;;;;;;;;18.80;99.90;;;;;;5076055;28;20375;-68
2022/07/27 08:46:20;;;;;;;;;;;19.00;99.90;;;;;;5075310;28;19924;-66
2022/07/27 08:48:45;;;;;;;;;;;19.20;99.90;;;;;;5077199;28;19927;-68
2022/07/27 08:51:11;;;;;;;;;;;19.30;99.90;;;;;;5080508;28;19936;-69
2022/07/27 08:53:37;;;;;;;;;;;19.50;99.90;;;;;;5076735;28;19966;-68
2022/07/27 08:56:03;;;;;;;;;;;19.70;99.90;;;;;;5076117;28;19913;-69
2022/07/27 08:58:28;;;;;;;;;;;19.80;99.90;;;;;;5082094;28;19980;-70
2022/07/27 09:00:57;;;;;;;;;;;20.10;99.90;;;;;;5077381;28;19912;-69
2022/07/27 09:03:23;;;;;;;;;;;20.30;99.90;;;;;;5077948;28;19927;-68
2022/07/27 09:05:48;;;;;;;;;;;20.10;99.90;;;;;;5072798;28;19917;-69
2022/07/27 09:08:15;;;;;;;;;;;20.30;99.90;;;;;;5080532;28;20436;-68
2022/07/27 09:10:41;;;;;;;;;;;20.50;99.90;;;;;;5076712;28;19912;-68
2022/07/27 09:13:36;;;;;;;;;;;20.70;99.90;;;;;;5082993;28;19916;-68
2022/07/27 09:16:06;;;;;;;;;;;20.90;99.90;;;;;;5083936;28;19916;-69
2022/07/27 09:18:33;;;;;;;;;;;20.60;99.90;;;;;;5068524;28;20641;-67
2022/07/27 09:21:28;;;;;;;;;;;20.50;99.90;;;;;;5073536;28;20297;-68
2022/07/27 09:23:54;;;;;;;;;;;20.40;99.90;;;;;;5059340;28;19912;-67
2022/07/27 09:26:27;;;;;;;;;;;20.40;99.90;;;;;;5094596;28;19920;-69
2022/07/27 09:28:57;;;;;;;;;;;20.50;99.90;;;;;;5094940;28;19920;-67
2022/07/27 09:31:23;;;;;;;;;;;20.60;99.90;;;;;;5100516;28;19912;-67
2022/07/27 09:33:51;;;;;;;;;;;20.80;99.90;;;;;;5092891;28;19926;-71
2022/07/27 09:36:17;;;;;;;;;;;20.90;99.90;;;;;;5096539;28;19919;-69
2022/07/27 09:38:51;;;;;;;;;;;20.80;99.90;;;;;;5102988;28;19915;-69
2022/07/27 09:41:16;;;;;;;;;;;20.80;99.90;;;;;;5102386;28;19951;-69
2022/07/27 09:43:49;;;;;;;;;;;20.90;99.90;;;;;;5101007;28;19943;-69
2022/07/27 09:46:15;;;;;;;;;;;21.10;99.90;;;;;;5098987;28;19960;-68
2022/07/27 09:48:40;;;;;;;;;;;21.20;99.90;;;;;;5099184;28;19916;-68
2022/07/27 09:51:07;;;;;;;;;;;21.30;99.90;;;;;;5095437;28;19919;-69
2022/07/27 09:53:34;;;;;;;;;;;21.30;99.90;;;;;;5082476;28;19917;-68
2022/07/27 09:56:08;;;;;;;;;;;21.30;99.90;;;;;;5096072;28;19920;-68
2022/07/27 09:58:36;;;;;;;;;;;21.40;99.90;;;;;;5078248;28;19951;-69
2022/07/27 10:01:02;;;;;;;;;;;21.60;99.90;;;;;;5100179;28;19939;-69
2022/07/27 10:03:28;;;;;;;;;;;21.70;99.90;;;;;;5079935;28;19915;-69
2022/07/27 10:05:53;;;;;;;;;;;21.70;99.90;;;;;;5094219;28;19923;-69
2022/07/27 10:08:19;;;;;;;;;;;21.70;99.40;;;;;;5095828;28;20035;-68
2022/07/27 10:10:45;;;;;;;;;;;21.70;98.30;;;;;;5098996;28;19916;-69
2022/07/27 10:13:11;;;;;;;;;;;22.00;98.30;;;;;;5093224;28;19950;-69
2022/07/27 10:15:39;;;;;;;;;;;22.30;94.40;;;;;;5095816;28;19919;-68
2022/07/27 10:18:07;;;;;;;;;;;22.40;91.40;;;;;;5081523;28;19916;-67
2022/07/27 10:20:35;;;;;;;;;;;22.50;90.30;;;;;;5072592;28;20350;-68
2022/07/27 10:23:01;;;;;;;;;;;22.50;87.80;;;;;;5089709;28;19966;-68
2022/07/27 10:25:28;;;;;;;;;;;22.70;86.00;;;;;;5089487;28;20035;-68
2022/07/27 10:28:11;;;;;;;;;;;22.80;83.80;;;;;;5096490;28;20408;-69
2022/07/27 10:30:36;;;;;;;;;;;22.90;82.60;;;;;;5091459;28;19999;-68
2022/07/27 10:33:13;;;;;;;;;;;22.90;80.10;;;;;;5094023;28;19938;-69
2022/07/27 10:35:39;;;;;;;;;;;22.90;78.20;;;;;;5074533;28;20268;-69
2022/07/27 10:38:05;;;;;;;;;;;23.10;78.30;;;;;;5093896;28;19955;-69
2022/07/27 10:40:34;;;;;;;;;;;23.30;77.70;;;;;;5096666;28;20417;-68
2022/07/27 10:43:28;;;;;;;;;;;23.60;75.50;;;;;;5089334;28;19937;-68
2022/07/27 10:45:56;;;;;;;;;;;23.80;75.10;;;;;;5060702;28;19920;-70
2022/07/27 10:48:38;;;;;;;;;;;24.30;73.70;;;;;;5097162;28;19979;-69
2022/07/27 10:51:06;;;;;;;;;;;24.20;72.20;;;;;;5097368;28;20286;-68
2022/07/27 10:53:33;;;;;;;;;;;23.90;72.20;;;;;;5098063;28;19919;-68
2022/07/27 10:55:59;;;;;;;;;;;23.90;74.30;;;;;;5095878;28;19919;-69
2022/07/27 10:58:27;;;;;;;;;;;24.10;72.90;;;;;;5094935;28;20825;-70
2022/07/27 11:00:52;;;;;;;;;;;23.40;75.50;;;;;;5096641;28;19950;-70
2022/07/27 11:03:38;;;;;;;;;;;23.20;76.40;;;;;;5101291;28;20021;-69
2022/07/27 11:06:10;;;;;;;;;;;23.20;77.50;;;;;;5080680;28;19950;-69
2022/07/27 11:08:36;;;;;;;;;;;23.20;79.50;;;;;;5097156;28;19916;-70
2022/07/27 11:11:03;;;;;;;;;;;23.50;77.60;;;;;;5073273;28;20320;-68
2022/07/27 11:13:29;;;;;;;;;;;23.60;76.70;;;;;;5100023;28;19956;-68
2022/07/27 11:15:56;;;;;;;;;;;23.70;75.80;;;;;;5099393;28;19968;-69
2022/07/27 11:18:25;;;;;;;;;;;23.80;75.50;;;;;;5096693;28;19920;-69
2022/07/27 11:20:51;;;;;;;;;;;23.60;76.20;;;;;;5080252;28;20369;-67
2022/07/27 11:23:20;;;;;;;;;;;23.40;74.70;;;;;;5075279;28;19931;-68
2022/07/27 11:25:59;;;;;;;;;;;23.20;74.50;;;;;;5076316;28;19927;-68
2022/07/27 11:28:29;;;;;;;;;;;23.20;75.20;;;;;;5094688;28;19920;-69
2022/07/27 11:30:57;;;;;;;;;;;23.10;76.00;;;;;;5076430;28;20205;-68
2022/07/27 11:33:23;;;;;;;;;;;23.00;75.50;;;;;;5098984;28;19955;-69
2022/07/27 11:35:55;;;;;;;;;;;22.90;75.00;;;;;;5093631;28;20344;-69
2022/07/27 11:38:21;;;;;;;;;;;23.10;73.80;;;;;;5093385;28;19912;-68
2022/07/27 11:40:48;;;;;;;;;;;23.10;73.90;;;;;;5093434;28;19964;-70
2022/07/27 11:43:30;;;;;;;;;;;23.10;74.50;;;;;;5095623;28;20010;-69
2022/07/27 11:45:55;;;;;;;;;;;23.20;73.40;;;;;;5092125;28;19918;-69
2022/07/27 11:48:21;;;;;;;;;;;23.10;72.50;;;;;;5096110;28;19916;-69
2022/07/27 11:50:56;;;;;;;;;;;23.20;72.90;;;;;;5094272;28;19912;-69
2022/07/27 11:53:22;;;;;;;;;;;23.40;72.70;;;;;;5074792;28;20346;-68
2022/07/27 11:55:48;;;;;;;;;;;23.60;71.20;;;;;;5088187;28;19932;-69
2022/07/27 11:58:17;;;;;;;;;;;23.80;73.60;;;;;;5074033;28;19912;-69
2022/07/27 12:00:45;;;;;;;;;;;24.00;70.70;;;;;;5096519;28;19920;-69
2022/07/27 12:03:22;;;;;;;;;;;24.10;69.20;;;;;;5101677;28;19915;-69
2022/07/27 12:05:49;;;;;;;;;;;24.10;68.50;;;;;;5074527;28;19919;-69
2022/07/27 12:08:15;;;;;;;;;;;24.10;65.90;;;;;;5095830;28;19931;-67
2022/07/27 12:10:55;;;;;;;;;;;23.70;67.80;;;;;;5093249;28;20353;-70
2022/07/27 12:13:21;;;;;;;;;;;23.70;67.90;;;;;;5097717;28;19929;-68
2022/07/27 12:15:55;;;;;;;;;;;23.90;68.80;;;;;;5075713;28;20042;-69
2022/07/27 12:18:20;;;;;;;;;;;24.30;67.60;;;;;;5071463;28;20003;-68
2022/07/27 12:20:47;;;;;;;;;;;24.30;65.60;;;;;;5100641;28;20061;-69
2022/07/27 12:23:13;;;;;;;;;;;24.40;67.00;;;;;;5097233;28;19912;-69
2022/07/27 12:25:40;;;;;;;;;;;25.00;67.70;;;;;;5062219;28;19927;-69
2022/07/27 12:28:05;;;;;;;;;;;25.40;65.40;;;;;;5077279;28;20722;-69
2022/07/27 12:30:34;;;;;;;;;;;25.40;64.60;;;;;;5091184;28;19919;-68
2022/07/27 12:33:00;;;;;;;;;;;25.60;65.70;;;;;;5056232;28;19916;-68
2022/07/27 12:35:31;;;;;;;;;;;25.50;63.70;;;;;;5076561;28;19970;-69
2022/07/27 12:37:58;;;;;;;;;;;25.50;64.40;;;;;;5076060;28;19943;-69
2022/07/27 12:40:24;;;;;;;;;;;25.50;64.70;;;;;;5072792;28;19951;-69
2022/07/27 12:42:54;;;;;;;;;;;25.70;63.20;;;;;;5072865;28;19913;-69
2022/07/27 12:45:20;;;;;;;;;;;25.80;63.20;;;;;;5079434;28;20260;-69
2022/07/27 12:47:47;;;;;;;;;;;25.80;64.40;;;;;;5072423;28;20343;-69
2022/07/27 12:50:12;;;;;;;;;;;25.80;64.30;;;;;;5073063;28;19921;-69
2022/07/27 12:52:42;;;;;;;;;;;25.50;63.10;;;;;;5085633;28;20206;-69
2022/07/27 12:55:08;;;;;;;;;;;25.30;65.20;;;;;;5055529;28;19920;-69
2022/07/27 12:57:34;;;;;;;;;;;25.00;64.00;;;;;;5089252;28;19999;-69
2022/07/27 12:59:59;;;;;;;;;;;24.70;64.30;;;;;;5074254;28;19960;-69
2022/07/27 13:02:25;;;;;;;;;;;24.40;67.60;;;;;;5079131;28;20302;-69
2022/07/27 13:04:51;;;;;;;;;;;24.10;66.90;;;;;;5065274;28;19956;-69
2022/07/27 13:07:17;;;;;;;;;;;24.10;69.20;;;;;;5088454;28;19921;-69
2022/07/27 13:09:44;;;;;;;;;;;24.00;68.70;;;;;;5072417;28;20424;-69
2022/07/27 13:12:10;;;;;;;;;;;23.80;71.20;;;;;;5070540;28;20015;-69
2022/07/27 13:14:36;;;;;;;;;;;23.70;71.30;;;;;;5053662;28;19978;-69
2022/07/27 13:17:01;;;;;;;;;;;23.40;71.70;;;;;;5078679;28;19956;-69
2022/07/27 13:19:27;;;;;;;;;;;23.40;72.00;;;;;;5083145;28;19912;-68
2022/07/27 13:21:52;;;;;;;;;;;23.40;71.90;;;;;;5083557;28;19923;-69
2022/07/27 13:24:18;;;;;;;;;;;23.40;72.10;;;;;;5083919;28;20024;-69
2022/07/27 13:26:44;;;;;;;;;;;23.50;71.10;;;;;;5091524;28;20280;-70
2022/07/27 13:29:10;;;;;;;;;;;23.50;72.20;;;;;;5100331;28;19920;-68
2022/07/27 13:31:35;;;;;;;;;;;23.20;75.30;;;;;;5073748;28;20438;-69
2022/07/27 13:34:01;;;;;;;;;;;22.90;79.20;;;;;;5087274;28;19911;-68
2022/07/27 13:36:27;;;;;;;;;;;22.60;83.20;;;;;;5101700;28;19912;-68
2022/07/27 13:38:53;;;;;;;;;;;22.20;85.00;;;;;;5090866;28;19912;-69
2022/07/27 13:41:18;;;;;;;;;;;22.20;88.00;;;;;;5077196;28;19923;-69
2022/07/27 13:43:44;;;;;;;;;;;22.20;90.10;;;;;;5099787;28;19912;-69
2022/07/27 13:46:10;;;;;;;;;;;22.20;89.90;;;;;;5094332;28;19912;-69
2022/07/27 13:48:36;;;;;;;;;;;22.10;90.40;;;;;;5091826;28;20010;-69
2022/07/27 13:51:02;;;;;;;;;;;22.20;90.40;;;;;;5096739;28;20014;-69
2022/07/27 13:53:28;;;;;;;;;;;22.20;90.40;;;;;;5098664;28;19912;-69
2022/07/27 13:55:55;;;;;;;;;;;22.20;89.90;;;;;;5098215;28;19935;-69
2022/07/27 13:58:21;;;;;;;;;;;22.10;90.20;;;;;;5094099;28;19965;-70
2022/07/27 14:00:48;;;;;;;;;;;22.20;89.20;;;;;;5101043;28;19912;-69
2022/07/27 14:03:14;;;;;;;;;;;22.40;89.30;;;;;;5094326;28;19919;-69
2022/07/27 14:05:44;;;;;;;;;;;22.30;90.50;;;;;;5092785;28;19908;-69
2022/07/27 14:08:13;;;;;;;;;;;22.30;90.10;;;;;;5101904;28;20049;-69
2022/07/27 14:10:40;;;;;;;;;;;22.40;90.10;;;;;;5103092;28;20342;-68
2022/07/27 14:13:15;;;;;;;;;;;22.30;90.60;;;;;;5092497;28;20251;-69
2022/07/27 14:15:45;;;;;;;;;;;22.50;88.60;;;;;;5092481;28;19973;-70